<?xml version="1.0" encoding="UTF-8" standalone="no" ?>
<gpx xmlns="http://www.topografix.com/GPX/1/1" xmlns:xsi="http://www.w3.org/2001/XMLSchema-instance" xsi:schemaLocation="http://www.topografix.com/GPX/1/1 http://www.topografix.com/GPX/1/1/gpx.xsd" version="1.1" creator="VisuGPX - https://www.visugpx.com">
  <metadata>
    <name>Sentier vignerons St Cannat</name>
    <desc><![CDATA[Randonnée du 25 mai 2020 pour le club de "Gransrandonnée" par Babette]]></desc>
  </metadata>
  <trk>
    <name><![CDATA[Sentier vignerons St Cannat]]></name>
    <trkseg>
      <trkpt lat="43.61923" lon="5.29789">
        <ele>205</ele>
        <time>2020-02-19T08:04:12Z</time>
      </trkpt>
      <trkpt lat="43.61923" lon="5.29789">
        <ele>205</ele>
        <time>2020-02-19T08:04:13Z</time>
      </trkpt>
      <trkpt lat="43.61924" lon="5.29788">
        <ele>205</ele>
        <time>2020-02-19T08:05:06Z</time>
      </trkpt>
      <trkpt lat="43.61924" lon="5.29787">
        <ele>205</ele>
        <time>2020-02-19T08:05:45Z</time>
      </trkpt>
      <trkpt lat="43.61923" lon="5.29793">
        <ele>205</ele>
        <time>2020-02-19T08:06:02Z</time>
      </trkpt>
      <trkpt lat="43.61917" lon="5.29844">
        <ele>206</ele>
        <time>2020-02-19T08:06:35Z</time>
      </trkpt>
      <trkpt lat="43.61923" lon="5.29851">
        <ele>206</ele>
        <time>2020-02-19T08:06:46Z</time>
      </trkpt>
      <trkpt lat="43.61932" lon="5.29859">
        <ele>207</ele>
        <time>2020-02-19T08:07:11Z</time>
      </trkpt>
      <trkpt lat="43.61953" lon="5.29859">
        <ele>207</ele>
        <time>2020-02-19T08:07:40Z</time>
      </trkpt>
      <trkpt lat="43.61993" lon="5.29848">
        <ele>208</ele>
        <time>2020-02-19T08:08:16Z</time>
      </trkpt>
      <trkpt lat="43.62033" lon="5.29828">
        <ele>210</ele>
        <time>2020-02-19T08:08:51Z</time>
      </trkpt>
      <trkpt lat="43.62055" lon="5.29824">
        <ele>211</ele>
        <time>2020-02-19T08:09:16Z</time>
      </trkpt>
      <trkpt lat="43.62076" lon="5.29854">
        <ele>211</ele>
        <time>2020-02-19T08:09:46Z</time>
      </trkpt>
      <trkpt lat="43.62073" lon="5.29892">
        <ele>211</ele>
        <time>2020-02-19T08:10:15Z</time>
      </trkpt>
      <trkpt lat="43.6207" lon="5.29929">
        <ele>211</ele>
        <time>2020-02-19T08:10:41Z</time>
      </trkpt>
      <trkpt lat="43.6206" lon="5.29975">
        <ele>211</ele>
        <time>2020-02-19T08:11:11Z</time>
      </trkpt>
      <trkpt lat="43.62053" lon="5.30036">
        <ele>212</ele>
        <time>2020-02-19T08:11:47Z</time>
      </trkpt>
      <trkpt lat="43.62052" lon="5.30077">
        <ele>213</ele>
        <time>2020-02-19T08:12:20Z</time>
      </trkpt>
      <trkpt lat="43.62054" lon="5.30083">
        <ele>213</ele>
        <time>2020-02-19T08:12:24Z</time>
      </trkpt>
      <trkpt lat="43.62069" lon="5.30134">
        <ele>215</ele>
        <time>2020-02-19T08:12:58Z</time>
      </trkpt>
      <trkpt lat="43.62079" lon="5.30176">
        <ele>218</ele>
        <time>2020-02-19T08:13:26Z</time>
      </trkpt>
      <trkpt lat="43.62082" lon="5.30235">
        <ele>219</ele>
        <time>2020-02-19T08:14:01Z</time>
      </trkpt>
      <trkpt lat="43.62082" lon="5.30289">
        <ele>221</ele>
        <time>2020-02-19T08:14:35Z</time>
      </trkpt>
      <trkpt lat="43.62076" lon="5.30343">
        <ele>222</ele>
        <time>2020-02-19T08:15:10Z</time>
      </trkpt>
      <trkpt lat="43.62074" lon="5.30397">
        <ele>223</ele>
        <time>2020-02-19T08:15:43Z</time>
      </trkpt>
      <trkpt lat="43.62069" lon="5.30455">
        <ele>224</ele>
        <time>2020-02-19T08:16:18Z</time>
      </trkpt>
      <trkpt lat="43.62055" lon="5.3051">
        <ele>226</ele>
        <time>2020-02-19T08:16:53Z</time>
      </trkpt>
      <trkpt lat="43.62038" lon="5.30562">
        <ele>226</ele>
        <time>2020-02-19T08:17:27Z</time>
      </trkpt>
      <trkpt lat="43.62019" lon="5.30611">
        <ele>227</ele>
        <time>2020-02-19T08:18:01Z</time>
      </trkpt>
      <trkpt lat="43.62022" lon="5.30664">
        <ele>228</ele>
        <time>2020-02-19T08:18:33Z</time>
      </trkpt>
      <trkpt lat="43.62031" lon="5.30721">
        <ele>229</ele>
        <time>2020-02-19T08:19:09Z</time>
      </trkpt>
      <trkpt lat="43.62039" lon="5.30778">
        <ele>232</ele>
        <time>2020-02-19T08:19:45Z</time>
      </trkpt>
      <trkpt lat="43.62051" lon="5.30834">
        <ele>235</ele>
        <time>2020-02-19T08:20:22Z</time>
      </trkpt>
      <trkpt lat="43.62069" lon="5.30886">
        <ele>236</ele>
        <time>2020-02-19T08:20:56Z</time>
      </trkpt>
      <trkpt lat="43.6209" lon="5.3094">
        <ele>239</ele>
        <time>2020-02-19T08:21:33Z</time>
      </trkpt>
      <trkpt lat="43.62113" lon="5.30982">
        <ele>241</ele>
        <time>2020-02-19T08:22:04Z</time>
      </trkpt>
      <trkpt lat="43.62136" lon="5.31037">
        <ele>244</ele>
        <time>2020-02-19T08:22:40Z</time>
      </trkpt>
      <trkpt lat="43.62151" lon="5.31098">
        <ele>245</ele>
        <time>2020-02-19T08:23:18Z</time>
      </trkpt>
      <trkpt lat="43.62164" lon="5.31157">
        <ele>243</ele>
        <time>2020-02-19T08:23:54Z</time>
      </trkpt>
      <trkpt lat="43.62175" lon="5.31214">
        <ele>245</ele>
        <time>2020-02-19T08:24:28Z</time>
      </trkpt>
      <trkpt lat="43.62183" lon="5.31269">
        <ele>245</ele>
        <time>2020-02-19T08:25:03Z</time>
      </trkpt>
      <trkpt lat="43.62198" lon="5.31316">
        <ele>245</ele>
        <time>2020-02-19T08:25:35Z</time>
      </trkpt>
      <trkpt lat="43.62211" lon="5.3137">
        <ele>245</ele>
        <time>2020-02-19T08:26:09Z</time>
      </trkpt>
      <trkpt lat="43.62208" lon="5.31431">
        <ele>246</ele>
        <time>2020-02-19T08:26:43Z</time>
      </trkpt>
      <trkpt lat="43.62212" lon="5.3147">
        <ele>247</ele>
        <time>2020-02-19T08:27:20Z</time>
      </trkpt>
      <trkpt lat="43.62213" lon="5.31472">
        <ele>247</ele>
        <time>2020-02-19T08:27:27Z</time>
      </trkpt>
      <trkpt lat="43.62228" lon="5.31521">
        <ele>248</ele>
        <time>2020-02-19T08:27:59Z</time>
      </trkpt>
      <trkpt lat="43.62248" lon="5.31572">
        <ele>249</ele>
        <time>2020-02-19T08:28:32Z</time>
      </trkpt>
      <trkpt lat="43.62264" lon="5.3163">
        <ele>249</ele>
        <time>2020-02-19T08:29:06Z</time>
      </trkpt>
      <trkpt lat="43.62289" lon="5.31636">
        <ele>249</ele>
        <time>2020-02-19T08:29:33Z</time>
      </trkpt>
      <trkpt lat="43.62318" lon="5.31654">
        <ele>249</ele>
        <time>2020-02-19T08:30:01Z</time>
      </trkpt>
      <trkpt lat="43.62341" lon="5.31709">
        <ele>250</ele>
        <time>2020-02-19T08:30:37Z</time>
      </trkpt>
      <trkpt lat="43.62362" lon="5.31758">
        <ele>251</ele>
        <time>2020-02-19T08:31:10Z</time>
      </trkpt>
      <trkpt lat="43.62384" lon="5.31798">
        <ele>252</ele>
        <time>2020-02-19T08:31:42Z</time>
      </trkpt>
      <trkpt lat="43.62414" lon="5.31833">
        <ele>253</ele>
        <time>2020-02-19T08:32:15Z</time>
      </trkpt>
      <trkpt lat="43.62445" lon="5.31868">
        <ele>257</ele>
        <time>2020-02-19T08:32:49Z</time>
      </trkpt>
      <trkpt lat="43.62468" lon="5.319">
        <ele>258</ele>
        <time>2020-02-19T08:33:15Z</time>
      </trkpt>
      <trkpt lat="43.62488" lon="5.31938">
        <ele>261</ele>
        <time>2020-02-19T08:33:43Z</time>
      </trkpt>
      <trkpt lat="43.62505" lon="5.31994">
        <ele>263</ele>
        <time>2020-02-19T08:34:19Z</time>
      </trkpt>
      <trkpt lat="43.62511" lon="5.32055">
        <ele>263</ele>
        <time>2020-02-19T08:34:56Z</time>
      </trkpt>
      <trkpt lat="43.6254" lon="5.32077">
        <ele>263</ele>
        <time>2020-02-19T08:35:25Z</time>
      </trkpt>
      <trkpt lat="43.62555" lon="5.32122">
        <ele>263</ele>
        <time>2020-02-19T08:35:58Z</time>
      </trkpt>
      <trkpt lat="43.62565" lon="5.32183">
        <ele>265</ele>
        <time>2020-02-19T08:36:35Z</time>
      </trkpt>
      <trkpt lat="43.62564" lon="5.32245">
        <ele>267</ele>
        <time>2020-02-19T08:37:12Z</time>
      </trkpt>
      <trkpt lat="43.62564" lon="5.32299">
        <ele>269</ele>
        <time>2020-02-19T08:37:44Z</time>
      </trkpt>
      <trkpt lat="43.6256" lon="5.32354">
        <ele>269</ele>
        <time>2020-02-19T08:38:19Z</time>
      </trkpt>
      <trkpt lat="43.62548" lon="5.32408">
        <ele>269</ele>
        <time>2020-02-19T08:38:53Z</time>
      </trkpt>
      <trkpt lat="43.62549" lon="5.3246">
        <ele>269</ele>
        <time>2020-02-19T08:39:28Z</time>
      </trkpt>
      <trkpt lat="43.62573" lon="5.32502">
        <ele>270</ele>
        <time>2020-02-19T08:40:00Z</time>
      </trkpt>
      <trkpt lat="43.62595" lon="5.32531">
        <ele>272</ele>
        <time>2020-02-19T08:40:30Z</time>
      </trkpt>
      <trkpt lat="43.62622" lon="5.32571">
        <ele>273</ele>
        <time>2020-02-19T08:41:03Z</time>
      </trkpt>
      <trkpt lat="43.62646" lon="5.3261">
        <ele>276</ele>
        <time>2020-02-19T08:41:36Z</time>
      </trkpt>
      <trkpt lat="43.62668" lon="5.32644">
        <ele>279</ele>
        <time>2020-02-19T08:42:07Z</time>
      </trkpt>
      <trkpt lat="43.62678" lon="5.32661">
        <ele>280</ele>
        <time>2020-02-19T08:42:35Z</time>
      </trkpt>
      <trkpt lat="43.62701" lon="5.32702">
        <ele>281</ele>
        <time>2020-02-19T08:43:08Z</time>
      </trkpt>
      <trkpt lat="43.62721" lon="5.32754">
        <ele>282</ele>
        <time>2020-02-19T08:43:45Z</time>
      </trkpt>
      <trkpt lat="43.62737" lon="5.32803">
        <ele>283</ele>
        <time>2020-02-19T08:44:19Z</time>
      </trkpt>
      <trkpt lat="43.62757" lon="5.32852">
        <ele>288</ele>
        <time>2020-02-19T08:44:53Z</time>
      </trkpt>
      <trkpt lat="43.62768" lon="5.32894">
        <ele>290</ele>
        <time>2020-02-19T08:45:22Z</time>
      </trkpt>
      <trkpt lat="43.62774" lon="5.32942">
        <ele>293</ele>
        <time>2020-02-19T08:45:53Z</time>
      </trkpt>
      <trkpt lat="43.62778" lon="5.32982">
        <ele>294</ele>
        <time>2020-02-19T08:46:26Z</time>
      </trkpt>
      <trkpt lat="43.62789" lon="5.33027">
        <ele>297</ele>
        <time>2020-02-19T08:46:56Z</time>
      </trkpt>
      <trkpt lat="43.62812" lon="5.33071">
        <ele>299</ele>
        <time>2020-02-19T08:47:29Z</time>
      </trkpt>
      <trkpt lat="43.62822" lon="5.33109">
        <ele>301</ele>
        <time>2020-02-19T08:48:01Z</time>
      </trkpt>
      <trkpt lat="43.62823" lon="5.33115">
        <ele>302</ele>
        <time>2020-02-19T08:48:36Z</time>
      </trkpt>
      <trkpt lat="43.6282" lon="5.33118">
        <ele>302</ele>
        <time>2020-02-19T08:49:00Z</time>
      </trkpt>
      <trkpt lat="43.62819" lon="5.33122">
        <ele>302</ele>
        <time>2020-02-19T08:49:35Z</time>
      </trkpt>
      <trkpt lat="43.6282" lon="5.33119">
        <ele>302</ele>
        <time>2020-02-19T08:50:37Z</time>
      </trkpt>
      <trkpt lat="43.6282" lon="5.33115">
        <ele>302</ele>
        <time>2020-02-19T08:51:27Z</time>
      </trkpt>
      <trkpt lat="43.6282" lon="5.33115">
        <ele>302</ele>
        <time>2020-02-19T08:52:44Z</time>
      </trkpt>
      <trkpt lat="43.62822" lon="5.33112">
        <ele>302</ele>
        <time>2020-02-19T08:54:16Z</time>
      </trkpt>
      <trkpt lat="43.62828" lon="5.33141">
        <ele>303</ele>
        <time>2020-02-19T08:56:14Z</time>
      </trkpt>
      <trkpt lat="43.62828" lon="5.33147">
        <ele>304</ele>
        <time>2020-02-19T08:56:18Z</time>
      </trkpt>
      <trkpt lat="43.62821" lon="5.33187">
        <ele>307</ele>
        <time>2020-02-19T08:56:51Z</time>
      </trkpt>
      <trkpt lat="43.62825" lon="5.33224">
        <ele>309</ele>
        <time>2020-02-19T08:57:21Z</time>
      </trkpt>
      <trkpt lat="43.6284" lon="5.33236">
        <ele>312</ele>
        <time>2020-02-19T08:57:40Z</time>
      </trkpt>
      <trkpt lat="43.62867" lon="5.33251">
        <ele>315</ele>
        <time>2020-02-19T08:58:15Z</time>
      </trkpt>
      <trkpt lat="43.62891" lon="5.33284">
        <ele>315</ele>
        <time>2020-02-19T08:58:49Z</time>
      </trkpt>
      <trkpt lat="43.6289" lon="5.3333">
        <ele>317</ele>
        <time>2020-02-19T08:59:20Z</time>
      </trkpt>
      <trkpt lat="43.62881" lon="5.33381">
        <ele>320</ele>
        <time>2020-02-19T08:59:54Z</time>
      </trkpt>
      <trkpt lat="43.62883" lon="5.33435">
        <ele>324</ele>
        <time>2020-02-19T09:00:28Z</time>
      </trkpt>
      <trkpt lat="43.62885" lon="5.33477">
        <ele>325</ele>
        <time>2020-02-19T09:00:59Z</time>
      </trkpt>
      <trkpt lat="43.62894" lon="5.33516">
        <ele>327</ele>
        <time>2020-02-19T09:01:30Z</time>
      </trkpt>
      <trkpt lat="43.62903" lon="5.33556">
        <ele>329</ele>
        <time>2020-02-19T09:02:07Z</time>
      </trkpt>
      <trkpt lat="43.62909" lon="5.33603">
        <ele>330</ele>
        <time>2020-02-19T09:02:41Z</time>
      </trkpt>
      <trkpt lat="43.6293" lon="5.33652">
        <ele>333</ele>
        <time>2020-02-19T09:03:27Z</time>
      </trkpt>
      <trkpt lat="43.62951" lon="5.3368">
        <ele>333</ele>
        <time>2020-02-19T09:03:57Z</time>
      </trkpt>
      <trkpt lat="43.6296" lon="5.33697">
        <ele>333</ele>
        <time>2020-02-19T09:04:21Z</time>
      </trkpt>
      <trkpt lat="43.62976" lon="5.33737">
        <ele>334</ele>
        <time>2020-02-19T09:04:54Z</time>
      </trkpt>
      <trkpt lat="43.62978" lon="5.33746">
        <ele>334</ele>
        <time>2020-02-19T09:05:20Z</time>
      </trkpt>
      <trkpt lat="43.62982" lon="5.33757">
        <ele>333</ele>
        <time>2020-02-19T09:05:44Z</time>
      </trkpt>
      <trkpt lat="43.62994" lon="5.33785">
        <ele>333</ele>
        <time>2020-02-19T09:06:09Z</time>
      </trkpt>
      <trkpt lat="43.63018" lon="5.33833">
        <ele>337</ele>
        <time>2020-02-19T09:06:46Z</time>
      </trkpt>
      <trkpt lat="43.63029" lon="5.33856">
        <ele>339</ele>
        <time>2020-02-19T09:07:17Z</time>
      </trkpt>
      <trkpt lat="43.63029" lon="5.33851">
        <ele>339</ele>
        <time>2020-02-19T09:07:22Z</time>
      </trkpt>
      <trkpt lat="43.63031" lon="5.33803">
        <ele>338</ele>
        <time>2020-02-19T09:07:56Z</time>
      </trkpt>
      <trkpt lat="43.63036" lon="5.33751">
        <ele>338</ele>
        <time>2020-02-19T09:08:31Z</time>
      </trkpt>
      <trkpt lat="43.63042" lon="5.33697">
        <ele>338</ele>
        <time>2020-02-19T09:09:05Z</time>
      </trkpt>
      <trkpt lat="43.63048" lon="5.33643">
        <ele>339</ele>
        <time>2020-02-19T09:09:37Z</time>
      </trkpt>
      <trkpt lat="43.63053" lon="5.33589">
        <ele>339</ele>
        <time>2020-02-19T09:10:15Z</time>
      </trkpt>
      <trkpt lat="43.63053" lon="5.33567">
        <ele>339</ele>
        <time>2020-02-19T09:10:45Z</time>
      </trkpt>
      <trkpt lat="43.63056" lon="5.33514">
        <ele>338</ele>
        <time>2020-02-19T09:11:19Z</time>
      </trkpt>
      <trkpt lat="43.63064" lon="5.33464">
        <ele>336</ele>
        <time>2020-02-19T09:11:53Z</time>
      </trkpt>
      <trkpt lat="43.63069" lon="5.33411">
        <ele>334</ele>
        <time>2020-02-19T09:12:27Z</time>
      </trkpt>
      <trkpt lat="43.63092" lon="5.33377">
        <ele>335</ele>
        <time>2020-02-19T09:12:59Z</time>
      </trkpt>
      <trkpt lat="43.63113" lon="5.33339">
        <ele>334</ele>
        <time>2020-02-19T09:13:29Z</time>
      </trkpt>
      <trkpt lat="43.63129" lon="5.33308">
        <ele>334</ele>
        <time>2020-02-19T09:13:57Z</time>
      </trkpt>
      <trkpt lat="43.63149" lon="5.3327">
        <ele>335</ele>
        <time>2020-02-19T09:14:32Z</time>
      </trkpt>
      <trkpt lat="43.63169" lon="5.33235">
        <ele>336</ele>
        <time>2020-02-19T09:15:03Z</time>
      </trkpt>
      <trkpt lat="43.63194" lon="5.33206">
        <ele>335</ele>
        <time>2020-02-19T09:15:37Z</time>
      </trkpt>
      <trkpt lat="43.63204" lon="5.3319">
        <ele>334</ele>
        <time>2020-02-19T09:16:03Z</time>
      </trkpt>
      <trkpt lat="43.63224" lon="5.33149">
        <ele>333</ele>
        <time>2020-02-19T09:16:35Z</time>
      </trkpt>
      <trkpt lat="43.63238" lon="5.3312">
        <ele>333</ele>
        <time>2020-02-19T09:17:00Z</time>
      </trkpt>
      <trkpt lat="43.63256" lon="5.33103">
        <ele>335</ele>
        <time>2020-02-19T09:17:30Z</time>
      </trkpt>
      <trkpt lat="43.6326" lon="5.33095">
        <ele>335</ele>
        <time>2020-02-19T09:17:52Z</time>
      </trkpt>
      <trkpt lat="43.6326" lon="5.33072">
        <ele>335</ele>
        <time>2020-02-19T09:18:18Z</time>
      </trkpt>
      <trkpt lat="43.63255" lon="5.3306">
        <ele>335</ele>
        <time>2020-02-19T09:18:49Z</time>
      </trkpt>
      <trkpt lat="43.63253" lon="5.33058">
        <ele>335</ele>
        <time>2020-02-19T09:18:51Z</time>
      </trkpt>
      <trkpt lat="43.63243" lon="5.33038">
        <ele>333</ele>
        <time>2020-02-19T09:19:19Z</time>
      </trkpt>
      <trkpt lat="43.63231" lon="5.33022">
        <ele>333</ele>
        <time>2020-02-19T09:19:47Z</time>
      </trkpt>
      <trkpt lat="43.63197" lon="5.32992">
        <ele>333</ele>
        <time>2020-02-19T09:20:21Z</time>
      </trkpt>
      <trkpt lat="43.63165" lon="5.32964">
        <ele>330</ele>
        <time>2020-02-19T09:20:54Z</time>
      </trkpt>
      <trkpt lat="43.63154" lon="5.32939">
        <ele>330</ele>
        <time>2020-02-19T09:21:16Z</time>
      </trkpt>
      <trkpt lat="43.63175" lon="5.3289">
        <ele>333</ele>
        <time>2020-02-19T09:21:52Z</time>
      </trkpt>
      <trkpt lat="43.63192" lon="5.32833">
        <ele>331</ele>
        <time>2020-02-19T09:22:32Z</time>
      </trkpt>
      <trkpt lat="43.63208" lon="5.32785">
        <ele>331</ele>
        <time>2020-02-19T09:23:07Z</time>
      </trkpt>
      <trkpt lat="43.63212" lon="5.32773">
        <ele>331</ele>
        <time>2020-02-19T09:23:31Z</time>
      </trkpt>
      <trkpt lat="43.63221" lon="5.32744">
        <ele>330</ele>
        <time>2020-02-19T09:23:57Z</time>
      </trkpt>
      <trkpt lat="43.63226" lon="5.32735">
        <ele>330</ele>
        <time>2020-02-19T09:24:22Z</time>
      </trkpt>
      <trkpt lat="43.63235" lon="5.32694">
        <ele>330</ele>
        <time>2020-02-19T09:24:52Z</time>
      </trkpt>
      <trkpt lat="43.63246" lon="5.32639">
        <ele>329</ele>
        <time>2020-02-19T09:25:26Z</time>
      </trkpt>
      <trkpt lat="43.63254" lon="5.32586">
        <ele>333</ele>
        <time>2020-02-19T09:25:58Z</time>
      </trkpt>
      <trkpt lat="43.63264" lon="5.3253">
        <ele>331</ele>
        <time>2020-02-19T09:26:32Z</time>
      </trkpt>
      <trkpt lat="43.63272" lon="5.32499">
        <ele>328</ele>
        <time>2020-02-19T09:27:01Z</time>
      </trkpt>
      <trkpt lat="43.63277" lon="5.32482">
        <ele>329</ele>
        <time>2020-02-19T09:27:28Z</time>
      </trkpt>
      <trkpt lat="43.63282" lon="5.32472">
        <ele>329</ele>
        <time>2020-02-19T09:27:39Z</time>
      </trkpt>
      <trkpt lat="43.63315" lon="5.32439">
        <ele>329</ele>
        <time>2020-02-19T09:28:13Z</time>
      </trkpt>
      <trkpt lat="43.63348" lon="5.32401">
        <ele>328</ele>
        <time>2020-02-19T09:28:47Z</time>
      </trkpt>
      <trkpt lat="43.63383" lon="5.3236">
        <ele>327</ele>
        <time>2020-02-19T09:29:25Z</time>
      </trkpt>
      <trkpt lat="43.63416" lon="5.32327">
        <ele>325</ele>
        <time>2020-02-19T09:30:01Z</time>
      </trkpt>
      <trkpt lat="43.63451" lon="5.32285">
        <ele>324</ele>
        <time>2020-02-19T09:30:41Z</time>
      </trkpt>
      <trkpt lat="43.6347" lon="5.32238">
        <ele>321</ele>
        <time>2020-02-19T09:31:15Z</time>
      </trkpt>
      <trkpt lat="43.63476" lon="5.32225">
        <ele>321</ele>
        <time>2020-02-19T09:31:42Z</time>
      </trkpt>
      <trkpt lat="43.63473" lon="5.32231">
        <ele>321</ele>
        <time>2020-02-19T09:31:58Z</time>
      </trkpt>
      <trkpt lat="43.63437" lon="5.32232">
        <ele>320</ele>
        <time>2020-02-19T09:32:33Z</time>
      </trkpt>
      <trkpt lat="43.63408" lon="5.32227">
        <ele>317</ele>
        <time>2020-02-19T09:33:07Z</time>
      </trkpt>
      <trkpt lat="43.63384" lon="5.32221">
        <ele>317</ele>
        <time>2020-02-19T09:33:31Z</time>
      </trkpt>
      <trkpt lat="43.63353" lon="5.3222">
        <ele>317</ele>
        <time>2020-02-19T09:34:01Z</time>
      </trkpt>
      <trkpt lat="43.63311" lon="5.3221">
        <ele>314</ele>
        <time>2020-02-19T09:34:39Z</time>
      </trkpt>
      <trkpt lat="43.63272" lon="5.32201">
        <ele>313</ele>
        <time>2020-02-19T09:35:16Z</time>
      </trkpt>
      <trkpt lat="43.6324" lon="5.32194">
        <ele>309</ele>
        <time>2020-02-19T09:35:46Z</time>
      </trkpt>
      <trkpt lat="43.63208" lon="5.32185">
        <ele>308</ele>
        <time>2020-02-19T09:36:18Z</time>
      </trkpt>
      <trkpt lat="43.63192" lon="5.32182">
        <ele>307</ele>
        <time>2020-02-19T09:36:35Z</time>
      </trkpt>
      <trkpt lat="43.63171" lon="5.3216">
        <ele>302</ele>
        <time>2020-02-19T09:37:01Z</time>
      </trkpt>
      <trkpt lat="43.63169" lon="5.32134">
        <ele>300</ele>
        <time>2020-02-19T09:37:20Z</time>
      </trkpt>
      <trkpt lat="43.63163" lon="5.32108">
        <ele>296</ele>
        <time>2020-02-19T09:37:44Z</time>
      </trkpt>
      <trkpt lat="43.63153" lon="5.32085">
        <ele>295</ele>
        <time>2020-02-19T09:38:09Z</time>
      </trkpt>
      <trkpt lat="43.6314" lon="5.3205">
        <ele>291</ele>
        <time>2020-02-19T09:38:41Z</time>
      </trkpt>
      <trkpt lat="43.63138" lon="5.3205">
        <ele>291</ele>
        <time>2020-02-19T09:38:44Z</time>
      </trkpt>
      <trkpt lat="43.63133" lon="5.32049">
        <ele>291</ele>
        <time>2020-02-19T09:38:49Z</time>
      </trkpt>
      <trkpt lat="43.63114" lon="5.32017">
        <ele>290</ele>
        <time>2020-02-19T09:39:19Z</time>
      </trkpt>
      <trkpt lat="43.63104" lon="5.31981">
        <ele>288</ele>
        <time>2020-02-19T09:39:50Z</time>
      </trkpt>
      <trkpt lat="43.63098" lon="5.31956">
        <ele>288</ele>
        <time>2020-02-19T09:40:16Z</time>
      </trkpt>
      <trkpt lat="43.63066" lon="5.31936">
        <ele>284</ele>
        <time>2020-02-19T09:40:52Z</time>
      </trkpt>
      <trkpt lat="43.6305" lon="5.31923">
        <ele>284</ele>
        <time>2020-02-19T09:41:27Z</time>
      </trkpt>
      <trkpt lat="43.63051" lon="5.31918">
        <ele>284</ele>
        <time>2020-02-19T09:41:59Z</time>
      </trkpt>
      <trkpt lat="43.63038" lon="5.31932">
        <ele>283</ele>
        <time>2020-02-19T09:42:21Z</time>
      </trkpt>
      <trkpt lat="43.63017" lon="5.31975">
        <ele>282</ele>
        <time>2020-02-19T09:42:54Z</time>
      </trkpt>
      <trkpt lat="43.62988" lon="5.32026">
        <ele>277</ele>
        <time>2020-02-19T09:43:32Z</time>
      </trkpt>
      <trkpt lat="43.62962" lon="5.32069">
        <ele>277</ele>
        <time>2020-02-19T09:44:07Z</time>
      </trkpt>
      <trkpt lat="43.62933" lon="5.32122">
        <ele>279</ele>
        <time>2020-02-19T09:44:48Z</time>
      </trkpt>
      <trkpt lat="43.6291" lon="5.32165">
        <ele>278</ele>
        <time>2020-02-19T09:45:23Z</time>
      </trkpt>
      <trkpt lat="43.62893" lon="5.32197">
        <ele>277</ele>
        <time>2020-02-19T09:45:52Z</time>
      </trkpt>
      <trkpt lat="43.62879" lon="5.32231">
        <ele>277</ele>
        <time>2020-02-19T09:46:19Z</time>
      </trkpt>
      <trkpt lat="43.62884" lon="5.32233">
        <ele>278</ele>
        <time>2020-02-19T09:46:23Z</time>
      </trkpt>
      <trkpt lat="43.62906" lon="5.32245">
        <ele>281</ele>
        <time>2020-02-19T09:46:44Z</time>
      </trkpt>
      <trkpt lat="43.62931" lon="5.32261">
        <ele>286</ele>
        <time>2020-02-19T09:47:11Z</time>
      </trkpt>
      <trkpt lat="43.62955" lon="5.32279">
        <ele>288</ele>
        <time>2020-02-19T09:47:46Z</time>
      </trkpt>
      <trkpt lat="43.62956" lon="5.32299">
        <ele>288</ele>
        <time>2020-02-19T09:48:06Z</time>
      </trkpt>
      <trkpt lat="43.62964" lon="5.3234">
        <ele>290</ele>
        <time>2020-02-19T09:48:37Z</time>
      </trkpt>
      <trkpt lat="43.6298" lon="5.32375">
        <ele>291</ele>
        <time>2020-02-19T09:49:08Z</time>
      </trkpt>
      <trkpt lat="43.62981" lon="5.32381">
        <ele>291</ele>
        <time>2020-02-19T09:49:12Z</time>
      </trkpt>
      <trkpt lat="43.63008" lon="5.32415">
        <ele>296</ele>
        <time>2020-02-19T09:49:46Z</time>
      </trkpt>
      <trkpt lat="43.63023" lon="5.32414">
        <ele>298</ele>
        <time>2020-02-19T09:50:04Z</time>
      </trkpt>
      <trkpt lat="43.63023" lon="5.32408">
        <ele>298</ele>
        <time>2020-02-19T09:50:08Z</time>
      </trkpt>
      <trkpt lat="43.63034" lon="5.32367">
        <ele>299</ele>
        <time>2020-02-19T09:50:40Z</time>
      </trkpt>
      <trkpt lat="43.63017" lon="5.32323">
        <ele>296</ele>
        <time>2020-02-19T09:51:13Z</time>
      </trkpt>
      <trkpt lat="43.62998" lon="5.32301">
        <ele>290</ele>
        <time>2020-02-19T09:51:34Z</time>
      </trkpt>
      <trkpt lat="43.62989" lon="5.32265">
        <ele>290</ele>
        <time>2020-02-19T09:52:04Z</time>
      </trkpt>
      <trkpt lat="43.6299" lon="5.32253">
        <ele>291</ele>
        <time>2020-02-19T09:52:13Z</time>
      </trkpt>
      <trkpt lat="43.62984" lon="5.3225">
        <ele>289</ele>
        <time>2020-02-19T09:52:37Z</time>
      </trkpt>
      <trkpt lat="43.62984" lon="5.32248">
        <ele>289</ele>
        <time>2020-02-19T09:53:30Z</time>
      </trkpt>
      <trkpt lat="43.62979" lon="5.32255">
        <ele>290</ele>
        <time>2020-02-19T09:54:04Z</time>
      </trkpt>
      <trkpt lat="43.62967" lon="5.32258">
        <ele>289</ele>
        <time>2020-02-19T09:54:35Z</time>
      </trkpt>
      <trkpt lat="43.62961" lon="5.32244">
        <ele>286</ele>
        <time>2020-02-19T09:55:03Z</time>
      </trkpt>
      <trkpt lat="43.62961" lon="5.32228">
        <ele>286</ele>
        <time>2020-02-19T09:55:29Z</time>
      </trkpt>
      <trkpt lat="43.62958" lon="5.32224">
        <ele>286</ele>
        <time>2020-02-19T09:56:21Z</time>
      </trkpt>
      <trkpt lat="43.62957" lon="5.32215">
        <ele>286</ele>
        <time>2020-02-19T09:56:46Z</time>
      </trkpt>
      <trkpt lat="43.6296" lon="5.32208">
        <ele>286</ele>
        <time>2020-02-19T09:57:09Z</time>
      </trkpt>
      <trkpt lat="43.62963" lon="5.32195">
        <ele>285</ele>
        <time>2020-02-19T09:57:42Z</time>
      </trkpt>
      <trkpt lat="43.62966" lon="5.32189">
        <ele>286</ele>
        <time>2020-02-19T09:58:08Z</time>
      </trkpt>
      <trkpt lat="43.62969" lon="5.32187">
        <ele>286</ele>
        <time>2020-02-19T09:58:32Z</time>
      </trkpt>
      <trkpt lat="43.62972" lon="5.32174">
        <ele>286</ele>
        <time>2020-02-19T09:59:01Z</time>
      </trkpt>
      <trkpt lat="43.62984" lon="5.32138">
        <ele>282</ele>
        <time>2020-02-19T09:59:30Z</time>
      </trkpt>
      <trkpt lat="43.63" lon="5.32096">
        <ele>282</ele>
        <time>2020-02-19T10:00:02Z</time>
      </trkpt>
      <trkpt lat="43.63014" lon="5.32059">
        <ele>283</ele>
        <time>2020-02-19T10:00:31Z</time>
      </trkpt>
      <trkpt lat="43.63034" lon="5.3201">
        <ele>283</ele>
        <time>2020-02-19T10:01:05Z</time>
      </trkpt>
      <trkpt lat="43.63059" lon="5.31975">
        <ele>284</ele>
        <time>2020-02-19T10:01:42Z</time>
      </trkpt>
      <trkpt lat="43.63059" lon="5.31973">
        <ele>284</ele>
        <time>2020-02-19T10:02:13Z</time>
      </trkpt>
      <trkpt lat="43.63059" lon="5.31972">
        <ele>284</ele>
        <time>2020-02-19T10:03:03Z</time>
      </trkpt>
      <trkpt lat="43.6306" lon="5.31954">
        <ele>284</ele>
        <time>2020-02-19T10:03:44Z</time>
      </trkpt>
      <trkpt lat="43.63059" lon="5.31949">
        <ele>284</ele>
        <time>2020-02-19T10:03:50Z</time>
      </trkpt>
      <trkpt lat="43.63046" lon="5.31923">
        <ele>284</ele>
        <time>2020-02-19T10:04:16Z</time>
      </trkpt>
      <trkpt lat="43.63048" lon="5.31911">
        <ele>284</ele>
        <time>2020-02-19T10:04:34Z</time>
      </trkpt>
      <trkpt lat="43.63058" lon="5.31868">
        <ele>284</ele>
        <time>2020-02-19T10:05:04Z</time>
      </trkpt>
      <trkpt lat="43.63059" lon="5.31824">
        <ele>283</ele>
        <time>2020-02-19T10:05:37Z</time>
      </trkpt>
      <trkpt lat="43.6306" lon="5.31796">
        <ele>282</ele>
        <time>2020-02-19T10:06:05Z</time>
      </trkpt>
      <trkpt lat="43.63067" lon="5.31744">
        <ele>279</ele>
        <time>2020-02-19T10:06:39Z</time>
      </trkpt>
      <trkpt lat="43.63078" lon="5.3171">
        <ele>278</ele>
        <time>2020-02-19T10:07:14Z</time>
      </trkpt>
      <trkpt lat="43.63088" lon="5.31678">
        <ele>282</ele>
        <time>2020-02-19T10:07:44Z</time>
      </trkpt>
      <trkpt lat="43.63102" lon="5.31627">
        <ele>283</ele>
        <time>2020-02-19T10:08:17Z</time>
      </trkpt>
      <trkpt lat="43.63102" lon="5.31606">
        <ele>283</ele>
        <time>2020-02-19T10:08:31Z</time>
      </trkpt>
      <trkpt lat="43.63116" lon="5.31603">
        <ele>283</ele>
        <time>2020-02-19T10:08:50Z</time>
      </trkpt>
      <trkpt lat="43.63147" lon="5.31604">
        <ele>285</ele>
        <time>2020-02-19T10:09:17Z</time>
      </trkpt>
      <trkpt lat="43.6315" lon="5.31599">
        <ele>285</ele>
        <time>2020-02-19T10:09:27Z</time>
      </trkpt>
      <trkpt lat="43.63142" lon="5.31568">
        <ele>284</ele>
        <time>2020-02-19T10:09:52Z</time>
      </trkpt>
      <trkpt lat="43.6314" lon="5.3155">
        <ele>283</ele>
        <time>2020-02-19T10:10:09Z</time>
      </trkpt>
      <trkpt lat="43.63108" lon="5.31544">
        <ele>282</ele>
        <time>2020-02-19T10:10:41Z</time>
      </trkpt>
      <trkpt lat="43.63099" lon="5.31539">
        <ele>282</ele>
        <time>2020-02-19T10:10:50Z</time>
      </trkpt>
      <trkpt lat="43.63099" lon="5.31531">
        <ele>282</ele>
        <time>2020-02-19T10:10:55Z</time>
      </trkpt>
      <trkpt lat="43.63106" lon="5.31472">
        <ele>278</ele>
        <time>2020-02-19T10:11:28Z</time>
      </trkpt>
      <trkpt lat="43.63107" lon="5.31444">
        <ele>277</ele>
        <time>2020-02-19T10:11:56Z</time>
      </trkpt>
      <trkpt lat="43.63105" lon="5.31427">
        <ele>276</ele>
        <time>2020-02-19T10:12:07Z</time>
      </trkpt>
      <trkpt lat="43.63098" lon="5.31404">
        <ele>273</ele>
        <time>2020-02-19T10:12:33Z</time>
      </trkpt>
      <trkpt lat="43.63101" lon="5.31369">
        <ele>273</ele>
        <time>2020-02-19T10:12:59Z</time>
      </trkpt>
      <trkpt lat="43.631" lon="5.31316">
        <ele>270</ele>
        <time>2020-02-19T10:13:35Z</time>
      </trkpt>
      <trkpt lat="43.63113" lon="5.31295">
        <ele>270</ele>
        <time>2020-02-19T10:14:03Z</time>
      </trkpt>
      <trkpt lat="43.63137" lon="5.31255">
        <ele>270</ele>
        <time>2020-02-19T10:14:34Z</time>
      </trkpt>
      <trkpt lat="43.63151" lon="5.31234">
        <ele>268</ele>
        <time>2020-02-19T10:15:08Z</time>
      </trkpt>
      <trkpt lat="43.63157" lon="5.31231">
        <ele>268</ele>
        <time>2020-02-19T10:15:15Z</time>
      </trkpt>
      <trkpt lat="43.63177" lon="5.31241">
        <ele>272</ele>
        <time>2020-02-19T10:15:39Z</time>
      </trkpt>
      <trkpt lat="43.63198" lon="5.31247">
        <ele>273</ele>
        <time>2020-02-19T10:15:58Z</time>
      </trkpt>
      <trkpt lat="43.63221" lon="5.31251">
        <ele>279</ele>
        <time>2020-02-19T10:16:23Z</time>
      </trkpt>
      <trkpt lat="43.63247" lon="5.31239">
        <ele>278</ele>
        <time>2020-02-19T10:16:56Z</time>
      </trkpt>
      <trkpt lat="43.63269" lon="5.31249">
        <ele>283</ele>
        <time>2020-02-19T10:17:24Z</time>
      </trkpt>
      <trkpt lat="43.63288" lon="5.31263">
        <ele>287</ele>
        <time>2020-02-19T10:17:46Z</time>
      </trkpt>
      <trkpt lat="43.63307" lon="5.31281">
        <ele>288</ele>
        <time>2020-02-19T10:18:08Z</time>
      </trkpt>
      <trkpt lat="43.63328" lon="5.31298">
        <ele>290</ele>
        <time>2020-02-19T10:18:31Z</time>
      </trkpt>
      <trkpt lat="43.63359" lon="5.31325">
        <ele>294</ele>
        <time>2020-02-19T10:19:05Z</time>
      </trkpt>
      <trkpt lat="43.63386" lon="5.31356">
        <ele>296</ele>
        <time>2020-02-19T10:19:40Z</time>
      </trkpt>
      <trkpt lat="43.63414" lon="5.31383">
        <ele>297</ele>
        <time>2020-02-19T10:20:11Z</time>
      </trkpt>
      <trkpt lat="43.63434" lon="5.31407">
        <ele>302</ele>
        <time>2020-02-19T10:20:45Z</time>
      </trkpt>
      <trkpt lat="43.63439" lon="5.31417">
        <ele>303</ele>
        <time>2020-02-19T10:20:54Z</time>
      </trkpt>
      <trkpt lat="43.63454" lon="5.31464">
        <ele>305</ele>
        <time>2020-02-19T10:21:27Z</time>
      </trkpt>
      <trkpt lat="43.63456" lon="5.31499">
        <ele>305</ele>
        <time>2020-02-19T10:21:58Z</time>
      </trkpt>
      <trkpt lat="43.63462" lon="5.31519">
        <ele>307</ele>
        <time>2020-02-19T10:22:23Z</time>
      </trkpt>
      <trkpt lat="43.63469" lon="5.31532">
        <ele>308</ele>
        <time>2020-02-19T10:22:50Z</time>
      </trkpt>
      <trkpt lat="43.63463" lon="5.31537">
        <ele>308</ele>
        <time>2020-02-19T10:23:14Z</time>
      </trkpt>
      <trkpt lat="43.63467" lon="5.31543">
        <ele>308</ele>
        <time>2020-02-19T10:23:24Z</time>
      </trkpt>
      <trkpt lat="43.63486" lon="5.31581">
        <ele>310</ele>
        <time>2020-02-19T10:23:59Z</time>
      </trkpt>
      <trkpt lat="43.63492" lon="5.31584">
        <ele>312</ele>
        <time>2020-02-19T10:24:27Z</time>
      </trkpt>
      <trkpt lat="43.63494" lon="5.31585">
        <ele>312</ele>
        <time>2020-02-19T10:25:21Z</time>
      </trkpt>
      <trkpt lat="43.63493" lon="5.31588">
        <ele>312</ele>
        <time>2020-02-19T10:26:13Z</time>
      </trkpt>
      <trkpt lat="43.63494" lon="5.31586">
        <ele>312</ele>
        <time>2020-02-19T10:41:17Z</time>
      </trkpt>
      <trkpt lat="43.63496" lon="5.31583">
        <ele>311</ele>
        <time>2020-02-19T10:41:45Z</time>
      </trkpt>
      <trkpt lat="43.63497" lon="5.31587">
        <ele>312</ele>
        <time>2020-02-19T10:45:20Z</time>
      </trkpt>
      <trkpt lat="43.63497" lon="5.31587">
        <ele>312</ele>
        <time>2020-02-19T10:47:08Z</time>
      </trkpt>
      <trkpt lat="43.63498" lon="5.31584">
        <ele>312</ele>
        <time>2020-02-19T10:52:28Z</time>
      </trkpt>
      <trkpt lat="43.63499" lon="5.31583">
        <ele>312</ele>
        <time>2020-02-19T10:53:45Z</time>
      </trkpt>
      <trkpt lat="43.63498" lon="5.31584">
        <ele>312</ele>
        <time>2020-02-19T10:53:59Z</time>
      </trkpt>
      <trkpt lat="43.63496" lon="5.3159">
        <ele>312</ele>
        <time>2020-02-19T10:54:19Z</time>
      </trkpt>
      <trkpt lat="43.63496" lon="5.3159">
        <ele>312</ele>
        <time>2020-02-19T10:55:24Z</time>
      </trkpt>
      <trkpt lat="43.6351" lon="5.31586">
        <ele>312</ele>
        <time>2020-02-19T10:56:50Z</time>
      </trkpt>
      <trkpt lat="43.63516" lon="5.31591">
        <ele>313</ele>
        <time>2020-02-19T10:57:01Z</time>
      </trkpt>
      <trkpt lat="43.63535" lon="5.31617">
        <ele>313</ele>
        <time>2020-02-19T10:57:32Z</time>
      </trkpt>
      <trkpt lat="43.63563" lon="5.31627">
        <ele>313</ele>
        <time>2020-02-19T10:58:07Z</time>
      </trkpt>
      <trkpt lat="43.63571" lon="5.31603">
        <ele>312</ele>
        <time>2020-02-19T10:58:37Z</time>
      </trkpt>
      <trkpt lat="43.63572" lon="5.31608">
        <ele>313</ele>
        <time>2020-02-19T10:58:53Z</time>
      </trkpt>
      <trkpt lat="43.63558" lon="5.31636">
        <ele>313</ele>
        <time>2020-02-19T10:59:22Z</time>
      </trkpt>
      <trkpt lat="43.63561" lon="5.31635">
        <ele>313</ele>
        <time>2020-02-19T11:00:20Z</time>
      </trkpt>
      <trkpt lat="43.63556" lon="5.31637">
        <ele>314</ele>
        <time>2020-02-19T11:00:39Z</time>
      </trkpt>
      <trkpt lat="43.63556" lon="5.31637">
        <ele>314</ele>
        <time>2020-02-19T11:01:19Z</time>
      </trkpt>
      <trkpt lat="43.63566" lon="5.31621">
        <ele>313</ele>
        <time>2020-02-19T11:02:31Z</time>
      </trkpt>
      <trkpt lat="43.63567" lon="5.31618">
        <ele>313</ele>
        <time>2020-02-19T11:02:33Z</time>
      </trkpt>
      <trkpt lat="43.63576" lon="5.31578">
        <ele>311</ele>
        <time>2020-02-19T11:03:11Z</time>
      </trkpt>
      <trkpt lat="43.63576" lon="5.31582">
        <ele>311</ele>
        <time>2020-02-19T11:03:44Z</time>
      </trkpt>
      <trkpt lat="43.63578" lon="5.31571">
        <ele>310</ele>
        <time>2020-02-19T11:04:07Z</time>
      </trkpt>
      <trkpt lat="43.63587" lon="5.31524">
        <ele>308</ele>
        <time>2020-02-19T11:04:41Z</time>
      </trkpt>
      <trkpt lat="43.63601" lon="5.31473">
        <ele>308</ele>
        <time>2020-02-19T11:05:14Z</time>
      </trkpt>
      <trkpt lat="43.63611" lon="5.31423">
        <ele>308</ele>
        <time>2020-02-19T11:05:46Z</time>
      </trkpt>
      <trkpt lat="43.63621" lon="5.31376">
        <ele>308</ele>
        <time>2020-02-19T11:06:18Z</time>
      </trkpt>
      <trkpt lat="43.63633" lon="5.31326">
        <ele>306</ele>
        <time>2020-02-19T11:06:51Z</time>
      </trkpt>
      <trkpt lat="43.63639" lon="5.31286">
        <ele>305</ele>
        <time>2020-02-19T11:07:18Z</time>
      </trkpt>
      <trkpt lat="43.63646" lon="5.31245">
        <ele>301</ele>
        <time>2020-02-19T11:07:44Z</time>
      </trkpt>
      <trkpt lat="43.63658" lon="5.31202">
        <ele>299</ele>
        <time>2020-02-19T11:08:11Z</time>
      </trkpt>
      <trkpt lat="43.63673" lon="5.3115">
        <ele>295</ele>
        <time>2020-02-19T11:08:44Z</time>
      </trkpt>
      <trkpt lat="43.63684" lon="5.31101">
        <ele>295</ele>
        <time>2020-02-19T11:09:14Z</time>
      </trkpt>
      <trkpt lat="43.63699" lon="5.31043">
        <ele>296</ele>
        <time>2020-02-19T11:09:50Z</time>
      </trkpt>
      <trkpt lat="43.63711" lon="5.30993">
        <ele>297</ele>
        <time>2020-02-19T11:10:22Z</time>
      </trkpt>
      <trkpt lat="43.63726" lon="5.30931">
        <ele>297</ele>
        <time>2020-02-19T11:11:01Z</time>
      </trkpt>
      <trkpt lat="43.63736" lon="5.30883">
        <ele>298</ele>
        <time>2020-02-19T11:11:32Z</time>
      </trkpt>
      <trkpt lat="43.63748" lon="5.30828">
        <ele>298</ele>
        <time>2020-02-19T11:12:04Z</time>
      </trkpt>
      <trkpt lat="43.63776" lon="5.30805">
        <ele>294</ele>
        <time>2020-02-19T11:12:33Z</time>
      </trkpt>
      <trkpt lat="43.63807" lon="5.30832">
        <ele>293</ele>
        <time>2020-02-19T11:13:03Z</time>
      </trkpt>
      <trkpt lat="43.63838" lon="5.30869">
        <ele>290</ele>
        <time>2020-02-19T11:13:35Z</time>
      </trkpt>
      <trkpt lat="43.63868" lon="5.30896">
        <ele>289</ele>
        <time>2020-02-19T11:14:06Z</time>
      </trkpt>
      <trkpt lat="43.63906" lon="5.30923">
        <ele>289</ele>
        <time>2020-02-19T11:14:41Z</time>
      </trkpt>
      <trkpt lat="43.63928" lon="5.3092">
        <ele>287</ele>
        <time>2020-02-19T11:15:03Z</time>
      </trkpt>
      <trkpt lat="43.63958" lon="5.30941">
        <ele>287</ele>
        <time>2020-02-19T11:15:36Z</time>
      </trkpt>
      <trkpt lat="43.63963" lon="5.3091">
        <ele>284</ele>
        <time>2020-02-19T11:16:01Z</time>
      </trkpt>
      <trkpt lat="43.63968" lon="5.30875">
        <ele>283</ele>
        <time>2020-02-19T11:16:30Z</time>
      </trkpt>
      <trkpt lat="43.63976" lon="5.3083">
        <ele>279</ele>
        <time>2020-02-19T11:17:00Z</time>
      </trkpt>
      <trkpt lat="43.63981" lon="5.30797">
        <ele>277</ele>
        <time>2020-02-19T11:17:23Z</time>
      </trkpt>
      <trkpt lat="43.63987" lon="5.30765">
        <ele>275</ele>
        <time>2020-02-19T11:17:44Z</time>
      </trkpt>
      <trkpt lat="43.63995" lon="5.30727">
        <ele>272</ele>
        <time>2020-02-19T11:18:10Z</time>
      </trkpt>
      <trkpt lat="43.64011" lon="5.30682">
        <ele>268</ele>
        <time>2020-02-19T11:18:40Z</time>
      </trkpt>
      <trkpt lat="43.64022" lon="5.30631">
        <ele>267</ele>
        <time>2020-02-19T11:19:13Z</time>
      </trkpt>
      <trkpt lat="43.64028" lon="5.30576">
        <ele>267</ele>
        <time>2020-02-19T11:19:46Z</time>
      </trkpt>
      <trkpt lat="43.64031" lon="5.30564">
        <ele>267</ele>
        <time>2020-02-19T11:20:16Z</time>
      </trkpt>
      <trkpt lat="43.64041" lon="5.30514">
        <ele>267</ele>
        <time>2020-02-19T11:20:47Z</time>
      </trkpt>
      <trkpt lat="43.64048" lon="5.3048">
        <ele>270</ele>
        <time>2020-02-19T11:21:16Z</time>
      </trkpt>
      <trkpt lat="43.6407" lon="5.30443">
        <ele>271</ele>
        <time>2020-02-19T11:21:47Z</time>
      </trkpt>
      <trkpt lat="43.641" lon="5.30415">
        <ele>267</ele>
        <time>2020-02-19T11:22:20Z</time>
      </trkpt>
      <trkpt lat="43.64129" lon="5.30399">
        <ele>265</ele>
        <time>2020-02-19T11:22:42Z</time>
      </trkpt>
      <trkpt lat="43.6416" lon="5.30369">
        <ele>263</ele>
        <time>2020-02-19T11:23:13Z</time>
      </trkpt>
      <trkpt lat="43.6416" lon="5.30319">
        <ele>263</ele>
        <time>2020-02-19T11:23:44Z</time>
      </trkpt>
      <trkpt lat="43.64154" lon="5.30266">
        <ele>261</ele>
        <time>2020-02-19T11:24:22Z</time>
      </trkpt>
      <trkpt lat="43.64143" lon="5.3021">
        <ele>261</ele>
        <time>2020-02-19T11:24:53Z</time>
      </trkpt>
      <trkpt lat="43.64137" lon="5.30158">
        <ele>258</ele>
        <time>2020-02-19T11:25:25Z</time>
      </trkpt>
      <trkpt lat="43.64135" lon="5.30108">
        <ele>257</ele>
        <time>2020-02-19T11:26:01Z</time>
      </trkpt>
      <trkpt lat="43.64112" lon="5.30063">
        <ele>253</ele>
        <time>2020-02-19T11:26:30Z</time>
      </trkpt>
      <trkpt lat="43.64096" lon="5.3004">
        <ele>251</ele>
        <time>2020-02-19T11:26:59Z</time>
      </trkpt>
      <trkpt lat="43.64084" lon="5.30025">
        <ele>250</ele>
        <time>2020-02-19T11:27:25Z</time>
      </trkpt>
      <trkpt lat="43.64062" lon="5.29995">
        <ele>246</ele>
        <time>2020-02-19T11:27:47Z</time>
      </trkpt>
      <trkpt lat="43.64036" lon="5.29955">
        <ele>245</ele>
        <time>2020-02-19T11:28:19Z</time>
      </trkpt>
      <trkpt lat="43.64013" lon="5.29932">
        <ele>243</ele>
        <time>2020-02-19T11:28:44Z</time>
      </trkpt>
      <trkpt lat="43.63989" lon="5.29919">
        <ele>240</ele>
        <time>2020-02-19T11:29:08Z</time>
      </trkpt>
      <trkpt lat="43.6397" lon="5.29914">
        <ele>237</ele>
        <time>2020-02-19T11:29:35Z</time>
      </trkpt>
      <trkpt lat="43.63937" lon="5.29912">
        <ele>235</ele>
        <time>2020-02-19T11:30:06Z</time>
      </trkpt>
      <trkpt lat="43.63894" lon="5.29922">
        <ele>235</ele>
        <time>2020-02-19T11:30:35Z</time>
      </trkpt>
      <trkpt lat="43.63849" lon="5.2993">
        <ele>233</ele>
        <time>2020-02-19T11:31:14Z</time>
      </trkpt>
      <trkpt lat="43.6382" lon="5.29911">
        <ele>228</ele>
        <time>2020-02-19T11:31:41Z</time>
      </trkpt>
      <trkpt lat="43.63782" lon="5.29886">
        <ele>227</ele>
        <time>2020-02-19T11:32:11Z</time>
      </trkpt>
      <trkpt lat="43.63751" lon="5.29852">
        <ele>226</ele>
        <time>2020-02-19T11:32:43Z</time>
      </trkpt>
      <trkpt lat="43.63719" lon="5.29823">
        <ele>224</ele>
        <time>2020-02-19T11:33:18Z</time>
      </trkpt>
      <trkpt lat="43.63697" lon="5.29802">
        <ele>224</ele>
        <time>2020-02-19T11:33:42Z</time>
      </trkpt>
      <trkpt lat="43.63665" lon="5.29768">
        <ele>225</ele>
        <time>2020-02-19T11:34:12Z</time>
      </trkpt>
      <trkpt lat="43.63639" lon="5.2972">
        <ele>223</ele>
        <time>2020-02-19T11:34:46Z</time>
      </trkpt>
      <trkpt lat="43.63628" lon="5.29699">
        <ele>223</ele>
        <time>2020-02-19T11:35:03Z</time>
      </trkpt>
      <trkpt lat="43.63638" lon="5.29678">
        <ele>223</ele>
        <time>2020-02-19T11:35:31Z</time>
      </trkpt>
      <trkpt lat="43.63675" lon="5.2966">
        <ele>220</ele>
        <time>2020-02-19T11:36:03Z</time>
      </trkpt>
      <trkpt lat="43.63712" lon="5.29637">
        <ele>220</ele>
        <time>2020-02-19T11:36:35Z</time>
      </trkpt>
      <trkpt lat="43.63752" lon="5.29627">
        <ele>221</ele>
        <time>2020-02-19T11:37:08Z</time>
      </trkpt>
      <trkpt lat="43.63771" lon="5.29622">
        <ele>221</ele>
        <time>2020-02-19T11:37:37Z</time>
      </trkpt>
      <trkpt lat="43.6381" lon="5.29616">
        <ele>221</ele>
        <time>2020-02-19T11:38:11Z</time>
      </trkpt>
      <trkpt lat="43.63828" lon="5.29612">
        <ele>221</ele>
        <time>2020-02-19T11:38:39Z</time>
      </trkpt>
      <trkpt lat="43.63844" lon="5.29599">
        <ele>223</ele>
        <time>2020-02-19T11:39:06Z</time>
      </trkpt>
      <trkpt lat="43.63852" lon="5.29596">
        <ele>223</ele>
        <time>2020-02-19T11:39:16Z</time>
      </trkpt>
      <trkpt lat="43.63868" lon="5.29589">
        <ele>224</ele>
        <time>2020-02-19T11:39:38Z</time>
      </trkpt>
      <trkpt lat="43.63901" lon="5.29567">
        <ele>224</ele>
        <time>2020-02-19T11:40:11Z</time>
      </trkpt>
      <trkpt lat="43.63926" lon="5.2953">
        <ele>226</ele>
        <time>2020-02-19T11:40:44Z</time>
      </trkpt>
      <trkpt lat="43.63916" lon="5.29473">
        <ele>223</ele>
        <time>2020-02-19T11:41:20Z</time>
      </trkpt>
      <trkpt lat="43.63918" lon="5.29423">
        <ele>223</ele>
        <time>2020-02-19T11:41:50Z</time>
      </trkpt>
      <trkpt lat="43.63898" lon="5.29371">
        <ele>221</ele>
        <time>2020-02-19T11:42:25Z</time>
      </trkpt>
      <trkpt lat="43.63867" lon="5.29327">
        <ele>219</ele>
        <time>2020-02-19T11:42:59Z</time>
      </trkpt>
      <trkpt lat="43.63858" lon="5.29282">
        <ele>219</ele>
        <time>2020-02-19T11:43:29Z</time>
      </trkpt>
      <trkpt lat="43.63855" lon="5.29258">
        <ele>218</ele>
        <time>2020-02-19T11:43:56Z</time>
      </trkpt>
      <trkpt lat="43.63847" lon="5.29208">
        <ele>216</ele>
        <time>2020-02-19T11:44:27Z</time>
      </trkpt>
      <trkpt lat="43.63845" lon="5.29205">
        <ele>216</ele>
        <time>2020-02-19T11:44:30Z</time>
      </trkpt>
      <trkpt lat="43.63841" lon="5.29206">
        <ele>216</ele>
        <time>2020-02-19T11:44:34Z</time>
      </trkpt>
      <trkpt lat="43.63807" lon="5.29214">
        <ele>214</ele>
        <time>2020-02-19T11:45:06Z</time>
      </trkpt>
      <trkpt lat="43.63774" lon="5.29219">
        <ele>213</ele>
        <time>2020-02-19T11:45:37Z</time>
      </trkpt>
      <trkpt lat="43.63735" lon="5.29229">
        <ele>209</ele>
        <time>2020-02-19T11:46:12Z</time>
      </trkpt>
      <trkpt lat="43.63695" lon="5.29236">
        <ele>208</ele>
        <time>2020-02-19T11:46:47Z</time>
      </trkpt>
      <trkpt lat="43.63662" lon="5.29216">
        <ele>205</ele>
        <time>2020-02-19T11:47:18Z</time>
      </trkpt>
      <trkpt lat="43.6362" lon="5.29223">
        <ele>205</ele>
        <time>2020-02-19T11:47:52Z</time>
      </trkpt>
      <trkpt lat="43.63597" lon="5.29208">
        <ele>205</ele>
        <time>2020-02-19T11:48:18Z</time>
      </trkpt>
      <trkpt lat="43.6359" lon="5.29219">
        <ele>205</ele>
        <time>2020-02-19T11:48:36Z</time>
      </trkpt>
      <trkpt lat="43.63565" lon="5.29241">
        <ele>205</ele>
        <time>2020-02-19T11:49:05Z</time>
      </trkpt>
      <trkpt lat="43.63552" lon="5.29255">
        <ele>207</ele>
        <time>2020-02-19T11:49:30Z</time>
      </trkpt>
      <trkpt lat="43.63522" lon="5.29285">
        <ele>208</ele>
        <time>2020-02-19T11:50:00Z</time>
      </trkpt>
      <trkpt lat="43.6349" lon="5.29301">
        <ele>208</ele>
        <time>2020-02-19T11:50:31Z</time>
      </trkpt>
      <trkpt lat="43.6348" lon="5.29305">
        <ele>208</ele>
        <time>2020-02-19T11:50:48Z</time>
      </trkpt>
      <trkpt lat="43.63457" lon="5.29306">
        <ele>208</ele>
        <time>2020-02-19T11:51:21Z</time>
      </trkpt>
      <trkpt lat="43.63435" lon="5.29304">
        <ele>208</ele>
        <time>2020-02-19T11:51:40Z</time>
      </trkpt>
      <trkpt lat="43.63396" lon="5.29301">
        <ele>209</ele>
        <time>2020-02-19T11:52:14Z</time>
      </trkpt>
      <trkpt lat="43.63366" lon="5.29307">
        <ele>211</ele>
        <time>2020-02-19T11:52:44Z</time>
      </trkpt>
      <trkpt lat="43.63337" lon="5.29315">
        <ele>213</ele>
        <time>2020-02-19T11:53:07Z</time>
      </trkpt>
      <trkpt lat="43.63301" lon="5.29323">
        <ele>216</ele>
        <time>2020-02-19T11:53:39Z</time>
      </trkpt>
      <trkpt lat="43.63268" lon="5.29329">
        <ele>218</ele>
        <time>2020-02-19T11:54:11Z</time>
      </trkpt>
      <trkpt lat="43.63242" lon="5.29337">
        <ele>224</ele>
        <time>2020-02-19T11:54:35Z</time>
      </trkpt>
      <trkpt lat="43.63221" lon="5.29349">
        <ele>227</ele>
        <time>2020-02-19T11:54:59Z</time>
      </trkpt>
      <trkpt lat="43.63189" lon="5.29365">
        <ele>229</ele>
        <time>2020-02-19T11:55:29Z</time>
      </trkpt>
      <trkpt lat="43.63151" lon="5.29381">
        <ele>231</ele>
        <time>2020-02-19T11:56:03Z</time>
      </trkpt>
      <trkpt lat="43.6311" lon="5.29401">
        <ele>231</ele>
        <time>2020-02-19T11:56:38Z</time>
      </trkpt>
      <trkpt lat="43.63075" lon="5.29431">
        <ele>231</ele>
        <time>2020-02-19T11:57:11Z</time>
      </trkpt>
      <trkpt lat="43.63051" lon="5.29446">
        <ele>231</ele>
        <time>2020-02-19T11:57:37Z</time>
      </trkpt>
      <trkpt lat="43.63003" lon="5.29471">
        <ele>230</ele>
        <time>2020-02-19T11:58:20Z</time>
      </trkpt>
      <trkpt lat="43.62967" lon="5.29476">
        <ele>230</ele>
        <time>2020-02-19T11:58:51Z</time>
      </trkpt>
      <trkpt lat="43.6293" lon="5.29463">
        <ele>229</ele>
        <time>2020-02-19T11:59:22Z</time>
      </trkpt>
      <trkpt lat="43.62901" lon="5.29498">
        <ele>228</ele>
        <time>2020-02-19T11:59:53Z</time>
      </trkpt>
      <trkpt lat="43.6287" lon="5.29538">
        <ele>226</ele>
        <time>2020-02-19T12:00:27Z</time>
      </trkpt>
      <trkpt lat="43.62857" lon="5.2955">
        <ele>226</ele>
        <time>2020-02-19T12:00:54Z</time>
      </trkpt>
      <trkpt lat="43.62836" lon="5.29563">
        <ele>226</ele>
        <time>2020-02-19T12:01:23Z</time>
      </trkpt>
      <trkpt lat="43.62797" lon="5.29582">
        <ele>224</ele>
        <time>2020-02-19T12:01:56Z</time>
      </trkpt>
      <trkpt lat="43.62758" lon="5.29583">
        <ele>223</ele>
        <time>2020-02-19T12:02:28Z</time>
      </trkpt>
      <trkpt lat="43.62719" lon="5.29583">
        <ele>221</ele>
        <time>2020-02-19T12:03:02Z</time>
      </trkpt>
      <trkpt lat="43.62679" lon="5.29601">
        <ele>219</ele>
        <time>2020-02-19T12:03:36Z</time>
      </trkpt>
      <trkpt lat="43.62636" lon="5.29621">
        <ele>216</ele>
        <time>2020-02-19T12:04:12Z</time>
      </trkpt>
      <trkpt lat="43.62597" lon="5.29622">
        <ele>215</ele>
        <time>2020-02-19T12:04:43Z</time>
      </trkpt>
      <trkpt lat="43.62551" lon="5.29615">
        <ele>213</ele>
        <time>2020-02-19T12:05:16Z</time>
      </trkpt>
      <trkpt lat="43.6251" lon="5.29616">
        <ele>213</ele>
        <time>2020-02-19T12:05:47Z</time>
      </trkpt>
      <trkpt lat="43.62479" lon="5.29622">
        <ele>213</ele>
        <time>2020-02-19T12:06:14Z</time>
      </trkpt>
      <trkpt lat="43.62459" lon="5.29667">
        <ele>213</ele>
        <time>2020-02-19T12:06:45Z</time>
      </trkpt>
      <trkpt lat="43.62436" lon="5.29711">
        <ele>214</ele>
        <time>2020-02-19T12:07:17Z</time>
      </trkpt>
      <trkpt lat="43.62413" lon="5.29755">
        <ele>213</ele>
        <time>2020-02-19T12:07:49Z</time>
      </trkpt>
      <trkpt lat="43.62387" lon="5.29778">
        <ele>213</ele>
        <time>2020-02-19T12:08:17Z</time>
      </trkpt>
      <trkpt lat="43.62364" lon="5.29829">
        <ele>213</ele>
        <time>2020-02-19T12:08:49Z</time>
      </trkpt>
      <trkpt lat="43.62329" lon="5.2988">
        <ele>212</ele>
        <time>2020-02-19T12:09:27Z</time>
      </trkpt>
      <trkpt lat="43.62291" lon="5.29888">
        <ele>212</ele>
        <time>2020-02-19T12:09:59Z</time>
      </trkpt>
      <trkpt lat="43.62252" lon="5.29876">
        <ele>211</ele>
        <time>2020-02-19T12:10:33Z</time>
      </trkpt>
      <trkpt lat="43.62233" lon="5.2987">
        <ele>211</ele>
        <time>2020-02-19T12:10:58Z</time>
      </trkpt>
      <trkpt lat="43.62197" lon="5.29859">
        <ele>211</ele>
        <time>2020-02-19T12:11:31Z</time>
      </trkpt>
      <trkpt lat="43.6217" lon="5.29851">
        <ele>211</ele>
        <time>2020-02-19T12:11:59Z</time>
      </trkpt>
      <trkpt lat="43.62127" lon="5.29827">
        <ele>211</ele>
        <time>2020-02-19T12:12:35Z</time>
      </trkpt>
      <trkpt lat="43.62119" lon="5.29823">
        <ele>211</ele>
        <time>2020-02-19T12:12:42Z</time>
      </trkpt>
      <trkpt lat="43.62114" lon="5.29825">
        <ele>211</ele>
        <time>2020-02-19T12:12:47Z</time>
      </trkpt>
      <trkpt lat="43.62088" lon="5.2986">
        <ele>211</ele>
        <time>2020-02-19T12:13:16Z</time>
      </trkpt>
      <trkpt lat="43.62086" lon="5.29858">
        <ele>212</ele>
        <time>2020-02-19T12:13:18Z</time>
      </trkpt>
      <trkpt lat="43.62079" lon="5.29837">
        <ele>212</ele>
        <time>2020-02-19T12:13:41Z</time>
      </trkpt>
      <trkpt lat="43.62077" lon="5.29834">
        <ele>212</ele>
        <time>2020-02-19T12:13:45Z</time>
      </trkpt>
      <trkpt lat="43.62069" lon="5.29823">
        <ele>211</ele>
        <time>2020-02-19T12:13:56Z</time>
      </trkpt>
      <trkpt lat="43.62032" lon="5.29824">
        <ele>210</ele>
        <time>2020-02-19T12:14:26Z</time>
      </trkpt>
      <trkpt lat="43.61994" lon="5.29844">
        <ele>208</ele>
        <time>2020-02-19T12:14:58Z</time>
      </trkpt>
      <trkpt lat="43.61962" lon="5.29856">
        <ele>207</ele>
        <time>2020-02-19T12:15:26Z</time>
      </trkpt>
      <trkpt lat="43.61919" lon="5.2985">
        <ele>206</ele>
        <time>2020-02-19T12:16:00Z</time>
      </trkpt>
      <trkpt lat="43.61916" lon="5.29848">
        <ele>205</ele>
        <time>2020-02-19T12:16:04Z</time>
      </trkpt>
      <trkpt lat="43.61916" lon="5.29841">
        <ele>205</ele>
        <time>2020-02-19T12:16:09Z</time>
      </trkpt>
      <trkpt lat="43.61918" lon="5.29836">
        <ele>205</ele>
        <time>2020-02-19T12:16:13Z</time>
      </trkpt>
      <trkpt lat="43.61924" lon="5.29792">
        <ele>205</ele>
        <time>2020-02-19T12:16:44Z</time>
      </trkpt>
    </trkseg>
  </trk>
</gpx>